Terminal Aerodrome Forecast
Issued by NWS

Current Version | Previous Version | Text Only | Print | Product List | Glossary On
Versions: 1 2 3 4 5 6 7 8 9 10 11 12 13 14 15 16 17 18 19 20 21 22 23 24 25 26 27 28 29 30 31 32 33 34 35 36
000 FTUS41 KOKX 171400 AAA TAFGON TAF AMD KGON 171417Z 1714/1812 03012KT P6SM SCT250 FM171500 08015KT P6SM SCT250 FM171800 09018KT P6SM FEW040 SCT250 FM180400 06012KT P6SM FEW030 BKN250 FM180900 05008KT P6SM BKN020 BKN250=

USA.gov is the U.S. government's official web portal to all federal, state and local government web resources and services.